createdAt,value
2022-11-03T00:09:25.010Z,12.2
2022-11-03T00:24:33.966Z,12
2022-11-03T00:39:43.328Z,12
2022-11-03T00:54:54.252Z,11.6
2022-11-03T01:10:04.801Z,11.4
2022-11-03T01:25:14.115Z,11.2
2022-11-03T01:40:23.482Z,11.1
2022-11-03T01:55:32.888Z,11.2
2022-11-03T02:10:42.936Z,11.2
2022-11-03T02:25:52.496Z,11.2
2022-11-03T02:41:02.377Z,11.3
2022-11-03T02:56:12.116Z,11.2
2022-11-03T03:11:21.748Z,11.2
2022-11-03T03:26:31.625Z,11.2
2022-11-03T03:41:41.355Z,11.1
2022-11-03T03:56:50.675Z,11.1
2022-11-03T04:11:59.777Z,11.1
2022-11-03T04:27:09.232Z,11.1
2022-11-03T04:42:20.093Z,11.1
2022-11-03T04:57:30.081Z,11
2022-11-03T05:12:42.626Z,11
2022-11-03T05:29:00.387Z,11.4
2022-11-03T05:44:11.457Z,11
2022-11-03T05:59:20.589Z,11
2022-11-03T06:14:29.979Z,11
2022-11-03T06:29:39.816Z,10.9
2022-11-03T06:44:49.760Z,11
2022-11-03T07:00:13.152Z,11.1
2022-11-03T07:15:51.255Z,11.2
2022-11-03T07:31:00.645Z,11.2
2022-11-03T07:46:10.166Z,11.2
2022-11-03T08:04:34.429Z,12.2
2022-11-03T08:19:45.331Z,11.6
2022-11-03T08:34:55.133Z,11.6
2022-11-03T08:50:04.745Z,11.8
2022-11-03T09:05:14.250Z,11.9
2022-11-03T09:20:26.812Z,12.2
2022-11-03T09:35:37.253Z,12.4
2022-11-03T09:50:46.758Z,12.5
2022-11-03T10:05:56.260Z,12.6
2022-11-03T10:21:08.349Z,12.7
2022-11-03T10:36:21.300Z,12.8
2022-11-03T10:51:31.029Z,12.9
2022-11-03T11:06:42.591Z,13.1
2022-11-03T11:21:52.176Z,13.2
2022-11-03T11:37:02.437Z,13.3
2022-11-03T11:52:15.439Z,13.4
2022-11-03T12:07:29.353Z,13.6
2022-11-03T12:22:39.162Z,13.6
2022-11-03T12:37:48.578Z,13.6
2022-11-03T12:52:58.333Z,13.6
2022-11-03T13:08:07.319Z,13.7
2022-11-03T13:23:21.963Z,13.7
2022-11-03T13:38:33.069Z,13.7
2022-11-03T14:11:00.266Z,13.6
2022-11-03T14:26:21.153Z,13.6
2022-11-03T14:41:53.137Z,13.6
2022-11-03T14:57:02.260Z,13.6
2022-11-03T15:12:11.769Z,13.6
2022-11-03T15:27:21.355Z,13.5
2022-11-03T15:42:31.099Z,13.4
2022-11-03T15:57:43.325Z,13.3
2022-11-03T16:12:55.974Z,13.3
2022-11-03T16:28:05.518Z,13.2
2022-11-03T16:43:17.025Z,13.2
2022-11-03T16:58:26.485Z,13.2
2022-11-03T17:13:36.319Z,13.2
2022-11-03T17:28:45.751Z,13.2
2022-11-03T17:43:55.755Z,13.2
2022-11-03T17:59:05.756Z,13.7
2022-11-03T18:14:15.328Z,13.9
2022-11-03T18:29:25.036Z,13.5
2022-11-03T18:44:34.411Z,13.3
2022-11-03T18:59:43.642Z,13.2
2022-11-03T19:14:52.908Z,13.2
2022-11-03T19:30:02.792Z,13.2
2022-11-03T19:45:12.518Z,13.2
2022-11-03T20:00:22.130Z,13.2
2022-11-03T20:15:31.392Z,13.1
2022-11-03T20:30:40.822Z,13.1
2022-11-03T20:45:50.368Z,13
2022-11-03T21:01:00.208Z,13
2022-11-03T21:16:23.924Z,13
2022-11-03T21:31:34.943Z,13
2022-11-03T21:46:44.332Z,12.9
2022-11-03T22:01:53.511Z,12.8
2022-11-03T22:17:03.682Z,12.7
2022-11-03T22:32:13.508Z,12.6
2022-11-03T22:47:22.970Z,12.5
2022-11-03T23:02:32.518Z,12.4
2022-11-03T23:17:43.662Z,12.3
2022-11-03T23:32:53.176Z,12.3
2022-11-03T23:48:02.332Z,12.3
